sensor_id;sensor_type;location;lat;lon;timestamp;temperature;humidity
18948;DHT22;9607;51.600;7.558;2023-07-29T00:00:08;19.60;99.90
18948;DHT22;9607;51.600;7.558;2023-07-29T00:02:36;19.60;99.90
18948;DHT22;9607;51.600;7.558;2023-07-29T00:05:03;19.60;99.90
18948;DHT22;9607;51.600;7.558;2023-07-29T00:07:30;19.60;99.90
18948;DHT22;9607;51.600;7.558;2023-07-29T00:09:58;19.60;99.90
18948;DHT22;9607;51.600;7.558;2023-07-29T00:12:25;19.50;99.90
18948;DHT22;9607;51.600;7.558;2023-07-29T00:14:52;19.50;99.90
18948;DHT22;9607;51.600;7.558;2023-07-29T00:17:19;19.40;99.90
18948;DHT22;9607;51.600;7.558;2023-07-29T00:19:46;19.50;99.90
18948;DHT22;9607;51.600;7.558;2023-07-29T00:22:13;19.40;99.90
18948;DHT22;9607;51.600;7.558;2023-07-29T00:24:40;19.40;99.90
18948;DHT22;9607;51.600;7.558;2023-07-29T00:27:08;19.40;99.90
18948;DHT22;9607;51.600;7.558;2023-07-29T00:29:38;19.40;99.90
18948;DHT22;9607;51.600;7.558;2023-07-29T00:32:05;19.40;99.90
18948;DHT22;9607;51.600;7.558;2023-07-29T00:34:32;19.40;99.90
18948;DHT22;9607;51.600;7.558;2023-07-29T00:36:59;19.40;99.90
18948;DHT22;9607;51.600;7.558;2023-07-29T00:39:26;19.40;99.90
18948;DHT22;9607;51.600;7.558;2023-07-29T00:41:53;19.40;99.90
18948;DHT22;9607;51.600;7.558;2023-07-29T00:44:21;19.40;99.90
18948;DHT22;9607;51.600;7.558;2023-07-29T00:46:50;19.40;99.90
18948;DHT22;9607;51.600;7.558;2023-07-29T00:49:17;19.40;99.90
18948;DHT22;9607;51.600;7.558;2023-07-29T00:51:44;19.30;99.90
18948;DHT22;9607;51.600;7.558;2023-07-29T00:54:11;19.30;99.90
18948;DHT22;9607;51.600;7.558;2023-07-29T00:56:37;19.30;99.90
18948;DHT22;9607;51.600;7.558;2023-07-29T00:59:04;19.20;99.90
18948;DHT22;9607;51.600;7.558;2023-07-29T01:01:33;19.30;99.90
18948;DHT22;9607;51.600;7.558;2023-07-29T01:04:00;19.30;99.90
18948;DHT22;9607;51.600;7.558;2023-07-29T01:06:33;19.20;99.90
18948;DHT22;9607;51.600;7.558;2023-07-29T01:09:04;19.20;99.90
18948;DHT22;9607;51.600;7.558;2023-07-29T01:11:38;19.20;99.90
18948;DHT22;9607;51.600;7.558;2023-07-29T01:14:15;19.10;99.90
18948;DHT22;9607;51.600;7.558;2023-07-29T01:16:50;19.10;99.90
18948;DHT22;9607;51.600;7.558;2023-07-29T01:19:32;19.10;99.90
18948;DHT22;9607;51.600;7.558;2023-07-29T01:22:03;19.00;99.90
18948;DHT22;9607;51.600;7.558;2023-07-29T01:24:32;19.00;99.90
18948;DHT22;9607;51.600;7.558;2023-07-29T01:26:59;19.00;99.90
18948;DHT22;9607;51.600;7.558;2023-07-29T01:29:27;19.00;99.90
18948;DHT22;9607;51.600;7.558;2023-07-29T01:31:58;19.00;99.90
18948;DHT22;9607;51.600;7.558;2023-07-29T01:34:31;19.00;99.90
18948;DHT22;9607;51.600;7.558;2023-07-29T01:37:01;19.00;99.90
18948;DHT22;9607;51.600;7.558;2023-07-29T01:39:34;19.00;99.90
18948;DHT22;9607;51.600;7.558;2023-07-29T01:42:02;18.90;99.90
18948;DHT22;9607;51.600;7.558;2023-07-29T01:44:29;18.80;99.90
18948;DHT22;9607;51.600;7.558;2023-07-29T01:46:56;18.80;99.90
18948;DHT22;9607;51.600;7.558;2023-07-29T01:49:23;18.70;99.90
18948;DHT22;9607;51.600;7.558;2023-07-29T01:51:49;18.60;99.90
18948;DHT22;9607;51.600;7.558;2023-07-29T01:54:16;18.60;99.90
18948;DHT22;9607;51.600;7.558;2023-07-29T01:56:44;18.60;99.90
18948;DHT22;9607;51.600;7.558;2023-07-29T01:59:11;18.50;99.90
18948;DHT22;9607;51.600;7.558;2023-07-29T02:01:39;18.50;99.90
18948;DHT22;9607;51.600;7.558;2023-07-29T02:04:06;18.40;99.90
18948;DHT22;9607;51.600;7.558;2023-07-29T02:06:33;18.40;99.90
18948;DHT22;9607;51.600;7.558;2023-07-29T02:09:00;18.40;99.90
18948;DHT22;9607;51.600;7.558;2023-07-29T02:11:26;18.30;99.90
18948;DHT22;9607;51.600;7.558;2023-07-29T02:13:55;18.30;99.90
18948;DHT22;9607;51.600;7.558;2023-07-29T02:16:22;18.20;99.90
18948;DHT22;9607;51.600;7.558;2023-07-29T02:18:49;18.20;99.90
18948;DHT22;9607;51.600;7.558;2023-07-29T02:21:16;18.10;99.90
18948;DHT22;9607;51.600;7.558;2023-07-29T02:23:43;18.20;99.90
18948;DHT22;9607;51.600;7.558;2023-07-29T02:26:10;18.20;99.90
18948;DHT22;9607;51.600;7.558;2023-07-29T02:28:37;18.20;99.90
18948;DHT22;9607;51.600;7.558;2023-07-29T02:31:14;18.20;99.90
18948;DHT22;9607;51.600;7.558;2023-07-29T02:33:42;18.20;99.90
18948;DHT22;9607;51.600;7.558;2023-07-29T02:36:09;18.20;99.90
18948;DHT22;9607;51.600;7.558;2023-07-29T02:38:36;18.20;99.90
18948;DHT22;9607;51.600;7.558;2023-07-29T02:41:02;18.20;99.90
18948;DHT22;9607;51.600;7.558;2023-07-29T02:43:29;18.20;99.90
18948;DHT22;9607;51.600;7.558;2023-07-29T02:45:56;18.20;99.90
18948;DHT22;9607;51.600;7.558;2023-07-29T02:48:25;18.20;99.90
18948;DHT22;9607;51.600;7.558;2023-07-29T02:50:52;18.20;99.90
18948;DHT22;9607;51.600;7.558;2023-07-29T02:53:19;18.20;99.90
18948;DHT22;9607;51.600;7.558;2023-07-29T02:55:46;18.20;99.90
18948;DHT22;9607;51.600;7.558;2023-07-29T02:58:13;18.10;99.90
18948;DHT22;9607;51.600;7.558;2023-07-29T03:00:39;18.10;99.90
18948;DHT22;9607;51.600;7.558;2023-07-29T03:03:07;18.10;99.90
18948;DHT22;9607;51.600;7.558;2023-07-29T03:05:35;18.20;99.90
18948;DHT22;9607;51.600;7.558;2023-07-29T03:08:03;18.10;99.90
18948;DHT22;9607;51.600;7.558;2023-07-29T03:10:30;18.20;99.90
18948;DHT22;9607;51.600;7.558;2023-07-29T03:12:57;18.20;99.90
18948;DHT22;9607;51.600;7.558;2023-07-29T03:15:24;18.20;99.90
18948;DHT22;9607;51.600;7.558;2023-07-29T03:17:51;18.20;99.90
18948;DHT22;9607;51.600;7.558;2023-07-29T03:20:19;18.30;99.90
18948;DHT22;9607;51.600;7.558;2023-07-29T03:22:47;18.30;99.90
18948;DHT22;9607;51.600;7.558;2023-07-29T03:25:14;18.30;99.90
18948;DHT22;9607;51.600;7.558;2023-07-29T03:27:41;18.40;99.90
18948;DHT22;9607;51.600;7.558;2023-07-29T03:30:08;18.40;99.90
18948;DHT22;9607;51.600;7.558;2023-07-29T03:32:37;18.50;99.90
18948;DHT22;9607;51.600;7.558;2023-07-29T03:35:05;18.40;99.90
18948;DHT22;9607;51.600;7.558;2023-07-29T03:37:31;18.50;99.90
18948;DHT22;9607;51.600;7.558;2023-07-29T03:40:00;18.50;99.90
18948;DHT22;9607;51.600;7.558;2023-07-29T03:42:26;18.60;99.90
18948;DHT22;9607;51.600;7.558;2023-07-29T03:44:53;18.60;99.90
18948;DHT22;9607;51.600;7.558;2023-07-29T03:47:20;18.60;99.90
18948;DHT22;9607;51.600;7.558;2023-07-29T03:49:47;18.60;99.90
18948;DHT22;9607;51.600;7.558;2023-07-29T03:52:14;18.70;99.90
18948;DHT22;9607;51.600;7.558;2023-07-29T03:54:41;18.70;99.90
18948;DHT22;9607;51.600;7.558;2023-07-29T03:57:09;18.60;99.90
18948;DHT22;9607;51.600;7.558;2023-07-29T03:59:36;18.60;99.90
18948;DHT22;9607;51.600;7.558;2023-07-29T04:02:04;18.70;99.90
18948;DHT22;9607;51.600;7.558;2023-07-29T04:04:31;18.60;99.90
18948;DHT22;9607;51.600;7.558;2023-07-29T04:06:58;18.60;99.90
18948;DHT22;9607;51.600;7.558;2023-07-29T04:09:25;18.60;99.90
18948;DHT22;9607;51.600;7.558;2023-07-29T04:11:51;18.60;99.90
18948;DHT22;9607;51.600;7.558;2023-07-29T04:14:20;18.60;99.90
18948;DHT22;9607;51.600;7.558;2023-07-29T04:16:46;18.50;99.90
18948;DHT22;9607;51.600;7.558;2023-07-29T04:19:14;18.60;99.90
18948;DHT22;9607;51.600;7.558;2023-07-29T04:21:41;18.60;99.90
18948;DHT22;9607;51.600;7.558;2023-07-29T04:24:08;18.60;99.90
18948;DHT22;9607;51.600;7.558;2023-07-29T04:26:35;18.60;99.90
18948;DHT22;9607;51.600;7.558;2023-07-29T04:29:02;18.60;99.90
18948;DHT22;9607;51.600;7.558;2023-07-29T04:31:30;18.70;99.90
18948;DHT22;9607;51.600;7.558;2023-07-29T04:33:57;18.70;99.90
18948;DHT22;9607;51.600;7.558;2023-07-29T04:36:24;18.80;99.90
18948;DHT22;9607;51.600;7.558;2023-07-29T04:38:51;18.80;99.90
18948;DHT22;9607;51.600;7.558;2023-07-29T04:41:17;18.90;99.90
18948;DHT22;9607;51.600;7.558;2023-07-29T04:43:44;19.00;99.90
18948;DHT22;9607;51.600;7.558;2023-07-29T04:46:11;19.00;99.90
18948;DHT22;9607;51.600;7.558;2023-07-29T04:48:39;19.00;99.90
18948;DHT22;9607;51.600;7.558;2023-07-29T04:51:06;19.10;99.90
18948;DHT22;9607;51.600;7.558;2023-07-29T04:53:33;19.10;99.90
18948;DHT22;9607;51.600;7.558;2023-07-29T04:56:00;19.10;99.90
18948;DHT22;9607;51.600;7.558;2023-07-29T04:58:27;19.20;99.90
18948;DHT22;9607;51.600;7.558;2023-07-29T05:00:55;19.20;99.90
18948;DHT22;9607;51.600;7.558;2023-07-29T05:03:22;19.30;99.90
18948;DHT22;9607;51.600;7.558;2023-07-29T05:05:50;19.30;99.90
18948;DHT22;9607;51.600;7.558;2023-07-29T05:08:19;19.30;99.90
18948;DHT22;9607;51.600;7.558;2023-07-29T05:10:48;19.40;99.90
18948;DHT22;9607;51.600;7.558;2023-07-29T05:13:16;19.40;99.90
18948;DHT22;9607;51.600;7.558;2023-07-29T05:15:43;19.40;99.90
18948;DHT22;9607;51.600;7.558;2023-07-29T05:18:10;19.50;99.90
18948;DHT22;9607;51.600;7.558;2023-07-29T05:20:36;19.50;99.90
18948;DHT22;9607;51.600;7.558;2023-07-29T05:23:05;19.50;99.90
18948;DHT22;9607;51.600;7.558;2023-07-29T05:25:32;19.60;99.90
18948;DHT22;9607;51.600;7.558;2023-07-29T05:28:00;19.60;99.90
18948;DHT22;9607;51.600;7.558;2023-07-29T05:30:27;19.60;99.90
18948;DHT22;9607;51.600;7.558;2023-07-29T05:32:56;19.60;99.90
18948;DHT22;9607;51.600;7.558;2023-07-29T05:35:23;19.60;99.90
18948;DHT22;9607;51.600;7.558;2023-07-29T05:37:50;19.60;99.90
18948;DHT22;9607;51.600;7.558;2023-07-29T05:40:18;19.60;99.90
18948;DHT22;9607;51.600;7.558;2023-07-29T05:42:46;19.60;99.90
18948;DHT22;9607;51.600;7.558;2023-07-29T05:45:13;19.60;99.90
18948;DHT22;9607;51.600;7.558;2023-07-29T05:47:41;19.70;99.90
18948;DHT22;9607;51.600;7.558;2023-07-29T05:50:09;19.70;99.90
18948;DHT22;9607;51.600;7.558;2023-07-29T05:52:36;19.70;99.90
18948;DHT22;9607;51.600;7.558;2023-07-29T05:55:04;19.80;99.90
18948;DHT22;9607;51.600;7.558;2023-07-29T05:57:32;19.90;99.90
18948;DHT22;9607;51.600;7.558;2023-07-29T05:59:59;20.00;99.90
18948;DHT22;9607;51.600;7.558;2023-07-29T06:02:25;20.00;99.90
18948;DHT22;9607;51.600;7.558;2023-07-29T06:04:52;20.00;99.90
18948;DHT22;9607;51.600;7.558;2023-07-29T06:07:19;20.00;99.90
18948;DHT22;9607;51.600;7.558;2023-07-29T06:09:46;20.00;99.90
18948;DHT22;9607;51.600;7.558;2023-07-29T06:12:13;19.90;99.90
18948;DHT22;9607;51.600;7.558;2023-07-29T06:14:41;19.90;99.90
18948;DHT22;9607;51.600;7.558;2023-07-29T06:17:08;19.80;99.90
18948;DHT22;9607;51.600;7.558;2023-07-29T06:19:36;19.90;99.90
18948;DHT22;9607;51.600;7.558;2023-07-29T06:22:04;19.80;99.90
18948;DHT22;9607;51.600;7.558;2023-07-29T06:24:31;19.80;99.90
18948;DHT22;9607;51.600;7.558;2023-07-29T06:26:58;19.80;99.90
18948;DHT22;9607;51.600;7.558;2023-07-29T06:29:25;19.70;99.90
18948;DHT22;9607;51.600;7.558;2023-07-29T06:31:53;19.80;99.90
18948;DHT22;9607;51.600;7.558;2023-07-29T06:34:20;19.80;99.90
18948;DHT22;9607;51.600;7.558;2023-07-29T06:36:48;19.80;99.90
18948;DHT22;9607;51.600;7.558;2023-07-29T06:39:14;19.70;99.90
18948;DHT22;9607;51.600;7.558;2023-07-29T06:41:41;19.70;99.90
18948;DHT22;9607;51.600;7.558;2023-07-29T06:44:08;19.80;99.90
18948;DHT22;9607;51.600;7.558;2023-07-29T06:46:35;19.70;99.90
18948;DHT22;9607;51.600;7.558;2023-07-29T06:49:04;19.70;99.90
18948;DHT22;9607;51.600;7.558;2023-07-29T06:51:31;19.70;99.90
18948;DHT22;9607;51.600;7.558;2023-07-29T06:54:00;19.70;99.90
18948;DHT22;9607;51.600;7.558;2023-07-29T06:56:27;19.70;99.90
18948;DHT22;9607;51.600;7.558;2023-07-29T06:58:54;19.70;99.90
18948;DHT22;9607;51.600;7.558;2023-07-29T07:01:21;19.70;99.90
18948;DHT22;9607;51.600;7.558;2023-07-29T07:03:48;19.70;99.90
18948;DHT22;9607;51.600;7.558;2023-07-29T07:06:16;19.70;99.90
18948;DHT22;9607;51.600;7.558;2023-07-29T07:08:43;19.80;99.90
18948;DHT22;9607;51.600;7.558;2023-07-29T07:11:09;19.70;99.90
18948;DHT22;9607;51.600;7.558;2023-07-29T07:13:36;19.70;99.90
18948;DHT22;9607;51.600;7.558;2023-07-29T07:16:03;19.60;99.90
18948;DHT22;9607;51.600;7.558;2023-07-29T07:18:30;19.50;99.90
18948;DHT22;9607;51.600;7.558;2023-07-29T07:20:57;19.50;99.90
18948;DHT22;9607;51.600;7.558;2023-07-29T07:23:25;19.40;99.90
18948;DHT22;9607;51.600;7.558;2023-07-29T07:25:52;19.40;99.90
18948;DHT22;9607;51.600;7.558;2023-07-29T07:28:19;19.30;99.90
18948;DHT22;9607;51.600;7.558;2023-07-29T07:30:45;19.40;99.90
18948;DHT22;9607;51.600;7.558;2023-07-29T07:33:12;19.40;99.90
18948;DHT22;9607;51.600;7.558;2023-07-29T07:35:39;19.50;99.90
18948;DHT22;9607;51.600;7.558;2023-07-29T07:38:07;19.50;99.90
18948;DHT22;9607;51.600;7.558;2023-07-29T07:40:36;19.60;99.90
18948;DHT22;9607;51.600;7.558;2023-07-29T07:43:03;19.70;99.90
18948;DHT22;9607;51.600;7.558;2023-07-29T07:45:32;19.80;99.90
18948;DHT22;9607;51.600;7.558;2023-07-29T07:47:59;19.90;99.90
18948;DHT22;9607;51.600;7.558;2023-07-29T07:50:29;20.00;99.90
18948;DHT22;9607;51.600;7.558;2023-07-29T07:52:55;20.00;99.90
18948;DHT22;9607;51.600;7.558;2023-07-29T07:55:22;20.10;99.90
18948;DHT22;9607;51.600;7.558;2023-07-29T07:57:50;20.10;99.90
18948;DHT22;9607;51.600;7.558;2023-07-29T08:00:17;20.20;99.90
18948;DHT22;9607;51.600;7.558;2023-07-29T08:02:45;20.30;99.90
18948;DHT22;9607;51.600;7.558;2023-07-29T08:05:12;20.40;99.90
18948;DHT22;9607;51.600;7.558;2023-07-29T08:07:39;20.60;99.90
18948;DHT22;9607;51.600;7.558;2023-07-29T08:10:07;20.60;99.90
18948;DHT22;9607;51.600;7.558;2023-07-29T08:12:33;20.60;99.90
18948;DHT22;9607;51.600;7.558;2023-07-29T08:15:02;20.60;99.90
18948;DHT22;9607;51.600;7.558;2023-07-29T08:17:29;20.70;99.90
18948;DHT22;9607;51.600;7.558;2023-07-29T08:19:56;20.80;99.90
18948;DHT22;9607;51.600;7.558;2023-07-29T08:22:23;20.90;99.90
18948;DHT22;9607;51.600;7.558;2023-07-29T08:24:50;21.00;99.90
18948;DHT22;9607;51.600;7.558;2023-07-29T08:27:16;21.20;99.90
18948;DHT22;9607;51.600;7.558;2023-07-29T08:29:43;21.30;99.90
18948;DHT22;9607;51.600;7.558;2023-07-29T08:32:11;21.40;99.90
18948;DHT22;9607;51.600;7.558;2023-07-29T08:34:38;21.40;99.90
18948;DHT22;9607;51.600;7.558;2023-07-29T08:37:06;21.40;99.90
18948;DHT22;9607;51.600;7.558;2023-07-29T08:39:32;21.50;99.90
18948;DHT22;9607;51.600;7.558;2023-07-29T08:42:02;21.50;99.90
18948;DHT22;9607;51.600;7.558;2023-07-29T08:44:35;21.60;99.90
18948;DHT22;9607;51.600;7.558;2023-07-29T08:47:02;21.80;99.90
18948;DHT22;9607;51.600;7.558;2023-07-29T08:49:31;21.80;99.90
18948;DHT22;9607;51.600;7.558;2023-07-29T08:51:58;21.80;99.90
18948;DHT22;9607;51.600;7.558;2023-07-29T08:54:26;21.80;99.90
18948;DHT22;9607;51.600;7.558;2023-07-29T08:56:52;21.90;99.90
18948;DHT22;9607;51.600;7.558;2023-07-29T08:59:20;22.00;99.90
18948;DHT22;9607;51.600;7.558;2023-07-29T09:01:47;22.10;99.90
18948;DHT22;9607;51.600;7.558;2023-07-29T09:04:14;22.20;99.90
18948;DHT22;9607;51.600;7.558;2023-07-29T09:06:44;22.40;99.90
18948;DHT22;9607;51.600;7.558;2023-07-29T09:09:12;22.50;99.90
18948;DHT22;9607;51.600;7.558;2023-07-29T09:11:39;22.60;99.90
18948;DHT22;9607;51.600;7.558;2023-07-29T09:14:06;22.70;99.90
18948;DHT22;9607;51.600;7.558;2023-07-29T09:16:33;22.80;99.90
18948;DHT22;9607;51.600;7.558;2023-07-29T09:19:01;22.90;99.90
18948;DHT22;9607;51.600;7.558;2023-07-29T09:21:29;23.10;99.90
18948;DHT22;9607;51.600;7.558;2023-07-29T09:24:02;23.30;99.90
18948;DHT22;9607;51.600;7.558;2023-07-29T09:26:29;23.40;99.90
18948;DHT22;9607;51.600;7.558;2023-07-29T09:28:58;23.60;99.90
18948;DHT22;9607;51.600;7.558;2023-07-29T09:31:27;23.80;99.90
18948;DHT22;9607;51.600;7.558;2023-07-29T09:33:56;23.90;99.90
18948;DHT22;9607;51.600;7.558;2023-07-29T09:36:23;23.90;99.90
18948;DHT22;9607;51.600;7.558;2023-07-29T09:38:53;23.70;99.90
18948;DHT22;9607;51.600;7.558;2023-07-29T09:41:23;23.60;99.90
18948;DHT22;9607;51.600;7.558;2023-07-29T09:43:56;23.70;99.90
18948;DHT22;9607;51.600;7.558;2023-07-29T09:46:25;23.60;99.90
18948;DHT22;9607;51.600;7.558;2023-07-29T09:48:53;23.50;99.90
18948;DHT22;9607;51.600;7.558;2023-07-29T09:51:21;23.50;99.90
18948;DHT22;9607;51.600;7.558;2023-07-29T09:53:50;23.40;99.90
18948;DHT22;9607;51.600;7.558;2023-07-29T09:56:18;23.40;99.90
18948;DHT22;9607;51.600;7.558;2023-07-29T09:58:51;23.40;99.90
18948;DHT22;9607;51.600;7.558;2023-07-29T10:01:18;23.60;99.90
18948;DHT22;9607;51.600;7.558;2023-07-29T10:03:45;23.60;99.90
18948;DHT22;9607;51.600;7.558;2023-07-29T10:06:14;23.80;99.90
18948;DHT22;9607;51.600;7.558;2023-07-29T10:08:42;24.00;99.90
18948;DHT22;9607;51.600;7.558;2023-07-29T10:11:11;24.30;99.90
18948;DHT22;9607;51.600;7.558;2023-07-29T10:13:38;24.60;99.90
18948;DHT22;9607;51.600;7.558;2023-07-29T10:16:06;24.80;99.90
18948;DHT22;9607;51.600;7.558;2023-07-29T10:18:34;24.90;99.90
18948;DHT22;9607;51.600;7.558;2023-07-29T10:21:02;25.00;99.90
18948;DHT22;9607;51.600;7.558;2023-07-29T10:23:38;25.00;99.90
18948;DHT22;9607;51.600;7.558;2023-07-29T10:26:10;25.20;99.90
18948;DHT22;9607;51.600;7.558;2023-07-29T10:28:40;25.20;99.90
18948;DHT22;9607;51.600;7.558;2023-07-29T10:31:09;25.30;99.90
18948;DHT22;9607;51.600;7.558;2023-07-29T10:33:37;25.50;99.90
18948;DHT22;9607;51.600;7.558;2023-07-29T10:36:05;25.40;99.90
18948;DHT22;9607;51.600;7.558;2023-07-29T10:38:32;25.40;99.90
18948;DHT22;9607;51.600;7.558;2023-07-29T10:40:59;25.50;99.90
18948;DHT22;9607;51.600;7.558;2023-07-29T10:43:28;25.60;99.90
18948;DHT22;9607;51.600;7.558;2023-07-29T10:45:58;25.70;99.90
18948;DHT22;9607;51.600;7.558;2023-07-29T10:48:43;25.90;99.90
18948;DHT22;9607;51.600;7.558;2023-07-29T10:51:27;26.00;99.90
18948;DHT22;9607;51.600;7.558;2023-07-29T10:53:56;26.00;99.90
18948;DHT22;9607;51.600;7.558;2023-07-29T10:56:28;25.90;99.90
18948;DHT22;9607;51.600;7.558;2023-07-29T10:58:57;25.80;99.90
18948;DHT22;9607;51.600;7.558;2023-07-29T11:01:28;25.70;99.90
18948;DHT22;9607;51.600;7.558;2023-07-29T11:04:22;25.50;99.90
18948;DHT22;9607;51.600;7.558;2023-07-29T11:07:20;25.10;99.90
18948;DHT22;9607;51.600;7.558;2023-07-29T11:09:58;24.90;99.90
18948;DHT22;9607;51.600;7.558;2023-07-29T11:12:38;24.80;99.90
18948;DHT22;9607;51.600;7.558;2023-07-29T11:15:14;24.90;99.90
18948;DHT22;9607;51.600;7.558;2023-07-29T11:17:42;25.00;99.90
18948;DHT22;9607;51.600;7.558;2023-07-29T11:20:12;25.10;99.90
18948;DHT22;9607;51.600;7.558;2023-07-29T11:22:39;25.20;99.90
18948;DHT22;9607;51.600;7.558;2023-07-29T11:25:08;25.20;99.90
18948;DHT22;9607;51.600;7.558;2023-07-29T11:27:35;25.10;99.90
18948;DHT22;9607;51.600;7.558;2023-07-29T11:30:04;25.00;99.90
18948;DHT22;9607;51.600;7.558;2023-07-29T11:32:32;24.90;99.90
18948;DHT22;9607;51.600;7.558;2023-07-29T11:35:02;24.90;99.90
18948;DHT22;9607;51.600;7.558;2023-07-29T11:37:32;24.90;99.90
18948;DHT22;9607;51.600;7.558;2023-07-29T11:39:59;24.90;99.90
18948;DHT22;9607;51.600;7.558;2023-07-29T11:42:27;24.90;99.90
18948;DHT22;9607;51.600;7.558;2023-07-29T11:44:56;24.80;99.90
18948;DHT22;9607;51.600;7.558;2023-07-29T11:47:23;24.70;99.90
18948;DHT22;9607;51.600;7.558;2023-07-29T11:49:50;24.70;99.90
18948;DHT22;9607;51.600;7.558;2023-07-29T11:52:18;24.90;99.90
18948;DHT22;9607;51.600;7.558;2023-07-29T11:54:49;25.00;99.90
18948;DHT22;9607;51.600;7.558;2023-07-29T11:57:16;25.20;99.90
18948;DHT22;9607;51.600;7.558;2023-07-29T11:59:45;25.50;99.90
18948;DHT22;9607;51.600;7.558;2023-07-29T12:02:14;25.80;99.90
18948;DHT22;9607;51.600;7.558;2023-07-29T12:04:43;26.20;99.90
18948;DHT22;9607;51.600;7.558;2023-07-29T12:07:11;26.50;99.80
18948;DHT22;9607;51.600;7.558;2023-07-29T12:09:39;26.60;98.30
18948;DHT22;9607;51.600;7.558;2023-07-29T12:12:08;26.60;97.90
18948;DHT22;9607;51.600;7.558;2023-07-29T12:14:35;26.60;97.70
18948;DHT22;9607;51.600;7.558;2023-07-29T12:17:04;26.50;97.30
18948;DHT22;9607;51.600;7.558;2023-07-29T12:19:32;26.40;97.80
18948;DHT22;9607;51.600;7.558;2023-07-29T12:22:00;26.40;99.10
18948;DHT22;9607;51.600;7.558;2023-07-29T12:24:27;27.10;98.70
18948;DHT22;9607;51.600;7.558;2023-07-29T12:26:55;27.70;94.70
18948;DHT22;9607;51.600;7.558;2023-07-29T12:29:24;28.70;91.60
18948;DHT22;9607;51.600;7.558;2023-07-29T12:31:58;29.00;91.60
18948;DHT22;9607;51.600;7.558;2023-07-29T12:34:26;30.20;90.00
18948;DHT22;9607;51.600;7.558;2023-07-29T12:36:56;31.40;84.20
18948;DHT22;9607;51.600;7.558;2023-07-29T12:39:24;31.80;75.30
18948;DHT22;9607;51.600;7.558;2023-07-29T12:41:53;31.40;74.60
18948;DHT22;9607;51.600;7.558;2023-07-29T12:44:20;31.00;74.30
18948;DHT22;9607;51.600;7.558;2023-07-29T12:46:48;30.80;74.10
18948;DHT22;9607;51.600;7.558;2023-07-29T12:49:15;30.80;72.60
18948;DHT22;9607;51.600;7.558;2023-07-29T12:51:42;30.30;73.20
18948;DHT22;9607;51.600;7.558;2023-07-29T12:54:09;29.80;75.30
18948;DHT22;9607;51.600;7.558;2023-07-29T12:56:35;29.40;77.10
18948;DHT22;9607;51.600;7.558;2023-07-29T12:59:02;29.40;79.70
18948;DHT22;9607;51.600;7.558;2023-07-29T13:01:29;29.50;79.40
18948;DHT22;9607;51.600;7.558;2023-07-29T13:03:58;29.90;79.50
18948;DHT22;9607;51.600;7.558;2023-07-29T13:06:25;30.30;79.60
18948;DHT22;9607;51.600;7.558;2023-07-29T13:08:52;30.10;75.60
18948;DHT22;9607;51.600;7.558;2023-07-29T13:11:19;29.90;78.20
18948;DHT22;9607;51.600;7.558;2023-07-29T13:13:46;29.60;76.90
18948;DHT22;9607;51.600;7.558;2023-07-29T13:16:13;29.30;76.50
18948;DHT22;9607;51.600;7.558;2023-07-29T13:18:40;29.10;78.50
18948;DHT22;9607;51.600;7.558;2023-07-29T13:21:08;29.00;79.90
18948;DHT22;9607;51.600;7.558;2023-07-29T13:23:35;28.70;79.60
18948;DHT22;9607;51.600;7.558;2023-07-29T13:26:02;28.50;83.00
18948;DHT22;9607;51.600;7.558;2023-07-29T13:28:28;28.40;83.20
18948;DHT22;9607;51.600;7.558;2023-07-29T13:30:55;28.40;82.10
18948;DHT22;9607;51.600;7.558;2023-07-29T13:33:22;28.40;83.00
18948;DHT22;9607;51.600;7.558;2023-07-29T13:35:49;28.20;82.60
18948;DHT22;9607;51.600;7.558;2023-07-29T13:38:17;28.10;83.60
18948;DHT22;9607;51.600;7.558;2023-07-29T13:40:45;27.90;83.90
18948;DHT22;9607;51.600;7.558;2023-07-29T13:43:12;27.80;82.60
18948;DHT22;9607;51.600;7.558;2023-07-29T13:45:39;27.90;84.80
18948;DHT22;9607;51.600;7.558;2023-07-29T13:48:05;28.00;85.60
18948;DHT22;9607;51.600;7.558;2023-07-29T13:50:32;28.10;82.70
18948;DHT22;9607;51.600;7.558;2023-07-29T13:52:59;28.00;84.20
18948;DHT22;9607;51.600;7.558;2023-07-29T13:55:27;28.10;83.10
18948;DHT22;9607;51.600;7.558;2023-07-29T13:57:54;27.90;81.80
18948;DHT22;9607;51.600;7.558;2023-07-29T14:00:21;27.50;82.90
18948;DHT22;9607;51.600;7.558;2023-07-29T14:02:48;27.30;84.10
18948;DHT22;9607;51.600;7.558;2023-07-29T14:05:15;27.00;84.40
18948;DHT22;9607;51.600;7.558;2023-07-29T14:07:41;26.50;85.80
18948;DHT22;9607;51.600;7.558;2023-07-29T14:10:08;26.10;88.10
18948;DHT22;9607;51.600;7.558;2023-07-29T14:12:37;25.80;90.40
18948;DHT22;9607;51.600;7.558;2023-07-29T14:15:04;25.60;91.00
18948;DHT22;9607;51.600;7.558;2023-07-29T14:17:32;25.30;91.60
18948;DHT22;9607;51.600;7.558;2023-07-29T14:19:58;24.90;92.70
18948;DHT22;9607;51.600;7.558;2023-07-29T14:22:25;24.70;93.90
18948;DHT22;9607;51.600;7.558;2023-07-29T14:24:52;24.40;95.60
18948;DHT22;9607;51.600;7.558;2023-07-29T14:27:19;24.10;97.20
18948;DHT22;9607;51.600;7.558;2023-07-29T14:29:47;23.90;98.60
18948;DHT22;9607;51.600;7.558;2023-07-29T14:32:14;23.70;99.90
18948;DHT22;9607;51.600;7.558;2023-07-29T14:34:41;23.40;99.90
18948;DHT22;9607;51.600;7.558;2023-07-29T14:37:07;23.00;99.90
18948;DHT22;9607;51.600;7.558;2023-07-29T14:39:34;22.50;99.90
18948;DHT22;9607;51.600;7.558;2023-07-29T14:42:01;21.80;99.90
18948;DHT22;9607;51.600;7.558;2023-07-29T14:44:28;21.00;99.90
18948;DHT22;9607;51.600;7.558;2023-07-29T14:46:56;20.40;99.90
18948;DHT22;9607;51.600;7.558;2023-07-29T14:49:23;19.90;99.90
18948;DHT22;9607;51.600;7.558;2023-07-29T14:51:50;19.30;99.90
18948;DHT22;9607;51.600;7.558;2023-07-29T14:54:16;18.80;99.90
18948;DHT22;9607;51.600;7.558;2023-07-29T14:56:43;18.30;99.90
18948;DHT22;9607;51.600;7.558;2023-07-29T14:59:10;17.60;99.90
18948;DHT22;9607;51.600;7.558;2023-07-29T15:01:37;17.00;99.90
18948;DHT22;9607;51.600;7.558;2023-07-29T15:04:05;16.70;99.90
18948;DHT22;9607;51.600;7.558;2023-07-29T15:06:32;16.40;99.90
18948;DHT22;9607;51.600;7.558;2023-07-29T15:08:59;16.40;99.90
18948;DHT22;9607;51.600;7.558;2023-07-29T15:11:26;16.40;99.90
18948;DHT22;9607;51.600;7.558;2023-07-29T15:13:53;16.60;99.90
18948;DHT22;9607;51.600;7.558;2023-07-29T15:16:23;17.10;99.90
18948;DHT22;9607;51.600;7.558;2023-07-29T15:18:49;17.40;99.90
18948;DHT22;9607;51.600;7.558;2023-07-29T15:21:18;17.90;99.90
18948;DHT22;9607;51.600;7.558;2023-07-29T15:23:45;18.40;99.90
18948;DHT22;9607;51.600;7.558;2023-07-29T15:26:12;18.70;99.90
18948;DHT22;9607;51.600;7.558;2023-07-29T15:28:39;19.20;99.90
18948;DHT22;9607;51.600;7.558;2023-07-29T15:31:06;19.80;99.90
18948;DHT22;9607;51.600;7.558;2023-07-29T15:33:33;20.80;99.90
18948;DHT22;9607;51.600;7.558;2023-07-29T15:36:00;22.90;99.90
18948;DHT22;9607;51.600;7.558;2023-07-29T15:38:28;25.00;99.90
18948;DHT22;9607;51.600;7.558;2023-07-29T15:40:55;26.20;99.90
18948;DHT22;9607;51.600;7.558;2023-07-29T15:43:22;27.00;99.90
18948;DHT22;9607;51.600;7.558;2023-07-29T15:45:49;27.20;99.90
18948;DHT22;9607;51.600;7.558;2023-07-29T15:48:16;27.00;99.90